createdAt,value
2018-01-11T00:01:34.227Z,26.27
2018-01-11T00:04:03.371Z,24.35
2018-01-11T00:06:43.488Z,28.58
2018-01-11T00:09:13.616Z,27.20
2018-01-11T00:11:56.816Z,24.00
2018-01-11T00:14:26.618Z,26.77
2018-01-11T00:16:55.716Z,25.58
2018-01-11T00:19:24.426Z,27.50
2018-01-11T00:21:53.114Z,28.17
2018-01-11T00:24:26.258Z,26.98
2018-01-11T00:27:02.978Z,23.27
2018-01-11T00:29:48.349Z,25.83
2018-01-11T00:32:29.640Z,24.17
2018-01-11T00:34:58.317Z,22.35
2018-01-11T00:37:26.997Z,23.50
2018-01-11T00:39:55.680Z,24.63
2018-01-11T00:42:24.350Z,25.55
2018-01-11T00:44:53.051Z,23.15
2018-01-11T00:47:21.720Z,22.10
2018-01-11T00:49:50.389Z,20.92
2018-01-11T00:52:19.849Z,22.62
2018-01-11T00:54:48.537Z,20.88
2018-01-11T00:57:17.251Z,22.00
2018-01-11T00:59:46.693Z,22.40
2018-01-11T01:02:15.366Z,24.00
2018-01-11T01:04:44.044Z,21.85
2018-01-11T01:07:13.482Z,20.90
2018-01-11T01:09:42.177Z,21.80
2018-01-11T01:12:10.853Z,21.87
2018-01-11T01:14:39.516Z,21.92
2018-01-11T01:17:08.206Z,21.83
2018-01-11T01:19:36.871Z,21.30
2018-01-11T01:22:06.329Z,21.30
2018-01-11T01:24:35.001Z,21.30
2018-01-11T01:27:03.677Z,22.17
2018-01-11T01:29:32.376Z,20.75
2018-01-11T01:32:01.053Z,23.00
2018-01-11T01:34:29.754Z,22.83
2018-01-11T01:36:58.424Z,21.80
2018-01-11T01:39:27.099Z,21.60
2018-01-11T01:41:55.794Z,22.02
2018-01-11T01:44:24.474Z,20.23
2018-01-11T01:46:53.171Z,22.67
2018-01-11T01:49:21.851Z,21.83
2018-01-11T01:51:50.528Z,22.25
2018-01-11T01:54:19.232Z,20.80
2018-01-11T01:56:47.901Z,22.45
2018-01-11T01:59:17.029Z,20.42
2018-01-11T02:01:45.709Z,20.48
2018-01-11T02:04:14.385Z,20.55
2018-01-11T02:06:43.069Z,20.17
2018-01-11T02:09:11.745Z,21.62
2018-01-11T02:11:41.214Z,19.75
2018-01-11T02:14:09.893Z,20.45
2018-01-11T02:16:38.569Z,20.92
2018-01-11T02:19:06.917Z,20.27
2018-01-11T02:21:35.580Z,22.95
2018-01-11T02:24:05.037Z,20.45
2018-01-11T02:26:33.710Z,21.15
2018-01-11T02:29:02.382Z,20.00
2018-01-11T02:31:31.068Z,19.50
2018-01-11T02:33:59.751Z,20.12
2018-01-11T02:36:28.471Z,21.55
2018-01-11T02:38:57.141Z,20.88
2018-01-11T02:41:25.490Z,19.23
2018-01-11T02:43:54.954Z,19.85
2018-01-11T02:46:24.397Z,18.40
2018-01-11T02:48:53.855Z,20.35
2018-01-11T02:51:22.531Z,20.98
2018-01-11T02:53:51.226Z,19.35
2018-01-11T02:56:19.899Z,18.12
2018-01-11T02:58:48.569Z,19.80
2018-01-11T03:01:17.245Z,19.60
2018-01-11T03:03:46.680Z,19.15
2018-01-11T03:06:15.384Z,19.05
2018-01-11T03:08:44.715Z,20.12
2018-01-11T03:11:13.385Z,20.35
2018-01-11T03:13:42.070Z,19.02
2018-01-11T03:16:10.749Z,19.65
2018-01-11T03:18:39.458Z,19.80
2018-01-11T03:21:08.186Z,18.40
2018-01-11T03:23:36.864Z,20.02
2018-01-11T03:26:07.474Z,19.50
2018-01-11T03:28:36.149Z,18.67
2018-01-11T03:31:04.847Z,20.00
2018-01-11T03:33:33.530Z,20.98
2018-01-11T03:36:02.526Z,18.85
2018-01-11T03:38:31.219Z,20.67
2018-01-11T03:41:00.652Z,19.35
2018-01-11T03:43:30.873Z,19.10
2018-01-11T03:45:59.538Z,21.25
2018-01-11T03:48:28.973Z,19.15
2018-01-11T03:53:41.847Z,20.58
2018-01-11T03:56:10.544Z,19.40
2018-01-11T03:58:41.226Z,18.42
2018-01-11T04:01:13.327Z,19.50
2018-01-11T04:03:43.740Z,18.37
2018-01-11T04:06:12.425Z,22.25
2018-01-11T04:08:41.118Z,19.65
2018-01-11T04:11:09.784Z,19.48
2018-01-11T04:13:39.995Z,21.60
2018-01-11T04:16:15.210Z,22.48
2018-01-11T04:18:44.677Z,19.02
2018-01-11T04:21:13.353Z,20.67
2018-01-11T04:23:42.865Z,20.95
2018-01-11T04:26:11.560Z,20.70
2018-01-11T04:28:40.226Z,19.87
2018-01-11T04:31:08.935Z,20.95
2018-01-11T04:33:37.603Z,19.35
2018-01-11T04:36:06.287Z,19.77
2018-01-11T04:38:34.986Z,19.30
2018-01-11T04:41:03.656Z,19.77
2018-01-11T04:43:32.357Z,20.70
2018-01-11T04:46:01.029Z,22.55
2018-01-11T04:48:29.702Z,20.52
2018-01-11T04:50:58.401Z,21.85
2018-01-11T04:53:27.070Z,20.42
2018-01-11T04:55:56.533Z,20.48
2018-01-11T04:58:25.202Z,18.87
2018-01-11T05:00:53.358Z,19.95
2018-01-11T05:03:22.045Z,19.30
2018-01-11T05:05:50.717Z,19.85
2018-01-11T05:08:19.416Z,19.00
2018-01-11T05:10:48.085Z,18.37
2018-01-11T05:13:17.530Z,22.25
2018-01-11T05:15:46.218Z,20.17
2018-01-11T05:18:14.887Z,20.25
2018-01-11T05:20:43.588Z,19.52
2018-01-11T05:23:12.266Z,22.25
2018-01-11T05:25:40.936Z,20.42
2018-01-11T05:28:09.624Z,19.25
2018-01-11T05:30:38.306Z,21.65
2018-01-11T05:33:06.998Z,21.00
2018-01-11T05:35:35.675Z,22.27
2018-01-11T05:38:04.354Z,19.77
2018-01-11T05:40:33.800Z,18.75
2018-01-11T05:43:02.472Z,20.95
2018-01-11T05:45:31.176Z,19.67
2018-01-11T05:47:59.844Z,20.45
2018-01-11T05:50:28.330Z,19.58
2018-01-11T05:52:57.018Z,20.60
2018-01-11T05:55:25.718Z,20.52
2018-01-11T05:57:54.417Z,20.08
2018-01-11T06:00:23.084Z,22.55
2018-01-11T06:02:51.752Z,21.40
2018-01-11T06:05:30.016Z,20.85
2018-01-11T06:07:58.690Z,21.40
2018-01-11T06:10:27.417Z,20.85
2018-01-11T06:12:57.363Z,20.37
2018-01-11T06:15:26.124Z,21.52
2018-01-11T06:17:55.594Z,21.95
2018-01-11T06:20:24.469Z,21.73
2018-01-11T06:22:53.425Z,19.98
2018-01-11T07:56:44.726Z,21.48
2018-01-11T07:59:13.397Z,21.58
2018-01-11T08:01:42.131Z,22.50
2018-01-11T08:04:10.965Z,24.25
2018-01-11T08:06:39.634Z,21.08
2018-01-11T08:09:09.111Z,23.58
2018-01-11T08:11:37.790Z,21.98
2018-01-11T08:14:06.457Z,21.60
2018-01-11T08:16:35.142Z,22.30
2018-01-11T08:19:03.828Z,21.35
2018-01-11T08:21:32.527Z,20.90
2018-01-11T08:24:01.201Z,20.80
2018-01-11T08:26:29.869Z,19.77
2018-01-11T08:28:58.568Z,20.08
2018-01-11T08:31:28.137Z,22.48
2018-01-11T08:33:57.601Z,19.83
2018-01-11T08:36:26.273Z,21.48
2018-01-11T08:38:54.960Z,21.17
2018-01-11T08:41:23.651Z,20.70
2018-01-11T08:43:52.322Z,20.50
2018-01-11T08:46:21.021Z,19.02
2018-01-11T08:48:49.700Z,19.60
2018-01-11T08:51:18.399Z,21.37
2018-01-11T08:53:47.094Z,21.25
2018-01-11T08:56:15.820Z,19.77
2018-01-11T08:58:45.288Z,22.10
2018-01-11T09:01:13.961Z,18.80
2018-01-11T09:03:42.636Z,20.80
2018-01-11T09:06:11.327Z,22.90
2018-01-11T09:08:40.007Z,19.62
2018-01-11T09:11:08.710Z,23.48
2018-01-11T09:13:37.375Z,22.58
2018-01-11T09:16:06.046Z,23.33
2018-01-11T09:18:34.752Z,22.98
2018-01-11T09:21:03.433Z,20.40
2018-01-11T09:23:32.132Z,21.90
2018-01-11T09:26:00.813Z,23.40
2018-01-11T09:28:29.481Z,22.58
2018-01-11T09:30:58.165Z,22.17
2018-01-11T09:33:26.833Z,19.70
2018-01-11T09:35:56.307Z,22.98
2018-01-11T09:38:24.976Z,21.33
2018-01-11T09:40:53.649Z,20.25
2018-01-11T09:43:22.333Z,19.58
2018-01-11T09:45:51.005Z,20.40
2018-01-11T09:48:20.471Z,19.37
2018-01-11T09:50:49.161Z,20.00
2018-01-11T09:53:17.849Z,19.55
2018-01-11T09:55:46.545Z,21.12
2018-01-11T09:58:15.240Z,22.10
2018-01-11T10:00:44.383Z,24.27
2018-01-11T10:03:13.049Z,25.15
2018-01-11T10:05:41.722Z,25.10
2018-01-11T10:08:11.188Z,25.48
2018-01-11T10:10:39.873Z,24.12
2018-01-11T10:13:08.598Z,23.38
2018-01-11T10:15:38.038Z,25.62
2018-01-11T10:18:06.742Z,22.55
2018-01-11T10:20:35.468Z,22.87
2018-01-11T10:23:04.988Z,23.00
2018-01-11T10:25:35.103Z,22.55
2018-01-11T10:28:04.542Z,23.77
2018-01-11T10:30:34.063Z,23.33
2018-01-11T10:33:02.745Z,24.05
2018-01-11T10:35:31.413Z,21.83
2018-01-11T10:38:00.113Z,21.27
2018-01-11T10:40:28.786Z,20.58
2018-01-11T10:42:57.457Z,20.30
2018-01-11T10:45:26.157Z,21.85
2018-01-11T10:47:55.561Z,23.73
2018-01-11T10:50:24.260Z,24.35
2018-01-11T10:52:52.943Z,22.50
2018-01-11T10:55:21.649Z,21.33
2018-01-11T10:57:50.337Z,20.88
2018-01-11T11:00:18.342Z,19.20
2018-01-11T11:02:49.822Z,18.58
2018-01-11T11:05:18.509Z,20.58
2018-01-11T11:07:47.215Z,19.80
2018-01-11T11:10:15.886Z,20.50
2018-01-11T11:12:44.557Z,19.40
2018-01-11T11:15:14.013Z,19.50
2018-01-11T11:17:42.704Z,17.65
2018-01-11T11:20:11.085Z,17.70
2018-01-11T11:22:39.766Z,20.83
2018-01-11T11:25:08.450Z,19.02
2018-01-11T11:27:37.132Z,18.73
2018-01-11T11:30:05.817Z,17.92
2018-01-11T11:32:34.530Z,19.12
2018-01-11T11:35:03.193Z,17.02
2018-01-11T11:37:31.869Z,18.85
2018-01-11T11:40:00.557Z,18.92
2018-01-11T11:42:29.243Z,19.20
2018-01-11T11:44:57.949Z,19.90
2018-01-11T11:47:26.622Z,19.00
2018-01-11T11:49:55.281Z,17.58
2018-01-11T11:52:24.005Z,20.35
2018-01-11T11:54:52.672Z,18.77
2018-01-11T11:57:21.372Z,18.35
2018-01-11T11:59:50.049Z,16.50
2018-01-11T12:02:18.762Z,17.60
2018-01-11T12:04:47.616Z,18.35
2018-01-11T12:07:16.285Z,18.95
2018-01-11T12:09:45.736Z,18.00
2018-01-11T12:12:14.411Z,19.02
2018-01-11T12:14:43.120Z,19.55
2018-01-11T12:17:11.788Z,18.15
2018-01-11T12:19:40.450Z,18.52
2018-01-11T12:22:09.133Z,18.75
2018-01-11T12:24:37.796Z,19.95
2018-01-11T12:27:06.491Z,19.10
2018-01-11T12:29:35.949Z,20.02
2018-01-11T12:32:04.629Z,19.70
2018-01-11T12:34:33.334Z,18.85
2018-01-11T12:37:02.010Z,19.52
2018-01-11T12:39:30.704Z,19.27
2018-01-11T12:41:59.381Z,18.80
2018-01-11T12:44:28.049Z,18.90
2018-01-11T12:46:56.736Z,18.10
2018-01-11T12:49:25.409Z,19.87
2018-01-11T12:51:54.116Z,18.48
2018-01-11T12:54:22.793Z,19.70
2018-01-11T12:56:51.464Z,18.25
2018-01-11T12:59:20.835Z,18.25
2018-01-11T13:01:49.505Z,19.10
2018-01-11T13:04:18.206Z,17.70
2018-01-11T13:06:46.890Z,17.35
2018-01-11T13:09:15.557Z,18.00
2018-01-11T13:11:44.240Z,19.08
2018-01-11T13:14:12.922Z,19.17
2018-01-11T13:16:41.609Z,18.23
2018-01-11T13:19:10.281Z,17.42
2018-01-11T13:21:38.954Z,16.33
2018-01-11T13:24:07.633Z,18.05
2018-01-11T13:26:37.073Z,16.60
2018-01-11T13:29:05.766Z,15.70
2018-01-11T13:31:35.439Z,15.93
2018-01-11T13:34:03.784Z,16.42
2018-01-11T13:36:32.465Z,15.75
2018-01-11T13:39:00.960Z,17.02
2018-01-11T13:41:29.764Z,17.12
2018-01-11T13:43:59.196Z,18.33
2018-01-11T13:46:27.861Z,17.30
2018-01-11T13:48:57.314Z,15.98
2018-01-11T13:51:25.743Z,15.73
2018-01-11T13:53:55.212Z,14.18
2018-01-11T13:56:23.544Z,15.73
2018-01-11T13:58:52.216Z,15.88
2018-01-11T14:01:21.664Z,16.80
2018-01-11T14:03:50.334Z,16.42
2018-01-11T14:06:19.037Z,15.55
2018-01-11T14:08:47.709Z,17.45
2018-01-11T14:11:16.373Z,17.65
2018-01-11T14:13:45.059Z,19.15
2018-01-11T14:16:14.305Z,16.65
2018-01-11T14:18:42.997Z,17.65
2018-01-11T14:21:11.679Z,17.42
2018-01-11T14:23:40.366Z,18.00
2018-01-11T14:26:09.056Z,16.60
2018-01-11T14:28:37.750Z,16.05
2018-01-11T14:31:06.457Z,17.67
2018-01-11T14:33:35.132Z,17.15
2018-01-11T14:36:03.802Z,15.00
2018-01-11T14:38:32.482Z,16.98
2018-01-11T14:41:01.158Z,16.45
2018-01-11T14:43:29.861Z,17.62
2018-01-11T14:45:58.558Z,17.23
2018-01-11T14:48:27.245Z,18.45
2018-01-11T14:50:55.924Z,17.27
2018-01-11T14:53:24.409Z,16.67
2018-01-11T14:55:53.114Z,18.80
2018-01-11T14:58:21.787Z,18.00
2018-01-11T15:00:50.116Z,18.00
2018-01-11T15:03:18.829Z,18.48
2018-01-11T15:05:47.502Z,17.17
2018-01-11T15:08:16.197Z,18.10
2018-01-11T15:10:44.878Z,19.05
2018-01-11T15:13:13.563Z,17.95
2018-01-11T15:15:42.266Z,19.73
2018-01-11T15:18:10.936Z,19.10
2018-01-11T15:20:39.637Z,19.25
2018-01-11T15:23:08.308Z,17.98
2018-01-11T15:25:36.962Z,18.50
2018-01-11T15:28:06.413Z,18.98
2018-01-11T15:30:35.090Z,18.27
2018-01-11T15:33:03.787Z,18.25
2018-01-11T15:35:32.473Z,18.12
2018-01-11T15:38:01.146Z,19.25
2018-01-11T15:40:29.838Z,18.60
2018-01-11T15:42:58.521Z,18.85
2018-01-11T15:45:27.409Z,18.98
2018-01-11T15:47:56.081Z,17.30
2018-01-11T15:50:25.517Z,17.55
2018-01-11T15:52:54.198Z,15.95
2018-01-11T15:55:22.865Z,17.85
2018-01-11T15:57:51.564Z,19.23
2018-01-11T16:00:20.253Z,27.70
2018-01-11T16:02:48.917Z,23.83
2018-01-11T16:05:18.376Z,17.90
2018-01-11T16:07:47.044Z,18.50
2018-01-11T16:10:15.744Z,21.77
2018-01-11T16:12:44.414Z,19.10
2018-01-11T16:15:13.086Z,18.20
2018-01-11T16:17:41.776Z,19.60
2018-01-11T16:20:10.441Z,20.65
2018-01-11T16:22:39.905Z,20.60
2018-01-11T16:25:08.577Z,18.42
2018-01-11T16:27:37.279Z,19.10
2018-01-11T16:30:06.746Z,20.25
2018-01-11T16:32:35.426Z,21.77
2018-01-11T16:35:04.123Z,20.75
2018-01-11T16:37:32.883Z,21.10
2018-01-11T16:40:02.322Z,21.65
2018-01-11T16:42:31.018Z,20.25
2018-01-11T16:44:59.685Z,21.15
2018-01-11T16:47:28.391Z,22.95
2018-01-11T16:49:57.061Z,22.45
2018-01-11T16:52:25.734Z,22.87
2018-01-11T16:54:54.433Z,21.12
2018-01-11T16:57:23.109Z,23.12
2018-01-11T16:59:51.623Z,22.15
2018-01-11T17:02:20.289Z,26.67
2018-01-11T17:04:48.972Z,22.95
2018-01-11T17:07:17.649Z,25.70
2018-01-11T17:09:46.330Z,24.17
2018-01-11T17:12:15.462Z,25.90
2018-01-11T17:14:44.133Z,24.52
2018-01-11T17:17:12.798Z,23.50
2018-01-11T17:19:42.254Z,24.25
2018-01-11T18:44:10.525Z,27.95
2018-01-11T18:46:39.216Z,27.80
2018-01-11T18:49:07.884Z,26.58
2018-01-11T18:51:36.553Z,27.40
2018-01-11T18:54:05.234Z,26.80
2018-01-11T18:56:33.907Z,29.58
2018-01-11T18:59:02.601Z,26.70
2018-01-11T19:01:31.278Z,28.02
2018-01-11T19:03:59.966Z,29.10
2018-01-11T19:06:29.410Z,26.67
2018-01-11T19:08:58.083Z,27.83
2018-01-11T19:11:26.781Z,27.85
2018-01-11T19:13:55.461Z,28.62
2018-01-11T19:16:24.138Z,29.55
2018-01-11T19:18:52.825Z,31.55
2018-01-11T19:21:21.497Z,27.80
2018-01-11T19:23:50.187Z,27.95
2018-01-11T19:26:18.851Z,27.52
2018-01-11T19:28:48.286Z,28.15
2018-01-11T19:31:17.025Z,28.40
2018-01-11T19:33:45.720Z,29.80
2018-01-11T19:36:15.201Z,31.70
2018-01-11T19:38:43.538Z,28.17
2018-01-11T19:41:12.214Z,30.40
2018-01-11T19:43:40.901Z,30.08
2018-01-11T19:46:09.574Z,30.80
2018-01-11T19:48:39.032Z,30.70
2018-01-11T19:51:08.461Z,32.45
2018-01-11T19:53:37.133Z,31.58
2018-01-11T19:56:05.821Z,33.08
2018-01-11T19:58:34.500Z,31.62
2018-01-11T20:01:03.214Z,32.17
2018-01-11T20:03:31.900Z,29.80
2018-01-11T20:06:00.753Z,33.08
2018-01-11T20:08:29.437Z,31.73
2018-01-11T20:10:58.112Z,29.60
2018-01-11T20:13:26.809Z,30.75
2018-01-11T20:15:55.158Z,31.42
2018-01-11T20:18:23.869Z,29.60
2018-01-11T20:20:53.458Z,31.37
2018-01-11T20:23:22.125Z,32.72
2018-01-11T20:25:51.593Z,33.22
2018-01-11T20:28:20.270Z,34.40
2018-01-11T20:30:48.950Z,32.10
2018-01-11T20:33:17.636Z,33.97
2018-01-11T20:35:46.310Z,30.85
2018-01-11T20:38:15.012Z,30.90
2018-01-11T20:40:43.688Z,32.45
2018-01-11T20:43:12.446Z,31.50
2018-01-11T20:45:41.903Z,32.65
2018-01-11T20:48:10.595Z,31.95
2018-01-11T20:50:39.297Z,30.73
2018-01-11T20:53:07.964Z,32.42
2018-01-11T20:55:36.637Z,31.27
2018-01-11T20:58:05.132Z,32.15
2018-01-11T21:00:33.800Z,32.13
2018-01-11T21:03:02.506Z,32.80
2018-01-11T21:05:31.002Z,33.05
2018-01-11T21:07:59.694Z,30.37
2018-01-11T21:10:28.397Z,31.12
2018-01-11T21:12:57.840Z,31.52
2018-01-11T21:15:26.533Z,30.20
2018-01-11T21:17:55.202Z,31.85
2018-01-11T21:20:23.874Z,32.80
2018-01-11T21:22:53.330Z,33.15
2018-01-11T21:25:21.996Z,29.20
2018-01-11T21:27:50.698Z,29.27
2018-01-11T21:30:19.377Z,31.58
2018-01-11T21:32:48.056Z,30.95
2018-01-11T21:35:16.746Z,32.55
2018-01-11T21:37:45.413Z,31.23
2018-01-11T21:40:13.781Z,30.60
2018-01-11T21:42:43.226Z,31.15
2018-01-11T21:45:11.909Z,30.30
2018-01-11T21:47:40.597Z,29.20
2018-01-11T21:50:09.278Z,33.03
2018-01-11T21:52:37.982Z,31.80
2018-01-11T21:55:06.655Z,32.25
2018-01-11T21:57:35.325Z,33.40
2018-01-11T22:00:03.704Z,31.87
2018-01-11T22:02:33.316Z,31.50
2018-01-11T22:05:02.024Z,31.95
2018-01-11T22:07:30.692Z,30.15
2018-01-11T22:09:59.400Z,32.05
2018-01-11T22:12:29.004Z,30.52
2018-01-11T22:14:57.672Z,30.58
2018-01-11T22:17:26.364Z,31.40
2018-01-11T22:19:54.840Z,29.23
2018-01-11T22:22:23.182Z,28.23
2018-01-11T22:24:51.869Z,27.62
2018-01-11T22:27:20.546Z,24.23
2018-01-11T22:29:49.237Z,24.83
2018-01-11T22:32:17.906Z,27.33
2018-01-11T22:34:46.568Z,26.05
2018-01-11T22:37:15.266Z,25.25
2018-01-11T22:39:43.949Z,25.17
2018-01-11T22:42:12.621Z,24.70
2018-01-11T22:44:41.310Z,25.40
2018-01-11T22:47:09.978Z,25.70
2018-01-11T22:49:39.425Z,27.35
2018-01-11T22:52:08.109Z,25.48
2018-01-11T22:54:36.773Z,25.98
2018-01-11T22:57:05.443Z,26.95
2018-01-11T22:59:34.897Z,26.77
2018-01-11T23:02:03.562Z,26.77
2018-01-11T23:04:33.026Z,27.90
2018-01-11T23:07:02.454Z,26.10
2018-01-11T23:09:31.114Z,26.45
2018-01-11T23:12:00.554Z,26.30
2018-01-11T23:14:29.281Z,27.02
2018-01-11T23:16:58.875Z,27.23
2018-01-11T23:19:27.545Z,25.92
2018-01-11T23:21:56.205Z,26.45
2018-01-11T23:24:24.889Z,27.83
2018-01-11T23:26:54.316Z,26.75
